Meteo Giornale » Osservazioni meteo Croazia » Osijek

ore: 15:00 - Osservazioni Meteo Osijek
Lat. 45° 28' N Lon. 18° 49' E Alt. 89 metri s.l.m.

nuvoloso Europe/Zagreb

23 °C

Nuvoloso

Temp. 24 Ore

14 °C

31 °C

Nord-Ovest

14.8 Km/h

Dew point 11 °C

Umidità 46 %

Visibilità  10 Km

Il sole sorge alle ore 05:02

Il sole tramonta alle ore 20:36

Data e Ora Cielo e Fenomeni T °C DP °C Um. % Pres. hPa Vis. km Vento km/h
Oggi h: 15:00 nuvoloso Nuvoloso 23 11 46 1017 10 NO 14.8
Oggi h: 14:30 nuvoloso Nuvoloso 22 11 49 1017 10 O/NO 20.3
Oggi h: 14:00 nuvoloso Nuvoloso 21 12 56 1017 10 O 16.7
Oggi h: 13:30 molto_nuvoloso Molto Nuvoloso 20 11 56 1017 10 O/NO 20.3
Oggi h: 13:00 molto_nuvoloso Molto Nuvoloso 19 12 63 1018 10 O/NO 18.5
Oggi h: 12:30 nuvoloso Nuvoloso 19 12 63 1018 10 O/NO 18.5
Oggi h: 12:00 nuvoloso Nuvoloso 18 12 67 1018 10 O/NO 24
Oggi h: 11:30 nuvoloso Nuvoloso 17 12 72 1018 10 O/NO 22.2
Oggi h: 11:00 nuvoloso Nuvoloso 17 12 72 1018 10 O/NO 18.5
Oggi h: 10:30 nuvoloso Nuvoloso 16 12 77 1018 10 O/NO 20.3
Oggi h: 10:00 nuvoloso Nuvoloso 16 12 77 1018 10 O/NO 20.3
Oggi h: 09:30 molto_nuvoloso Molto Nuvoloso 15 13 87 1018 10 O/NO 20.3
Oggi h: 09:00 nuvoloso Nuvoloso 14 13 93 1018 10 O/NO 20.3
Oggi h: 08:30 coperto_pioggia Pioggia Debole 14 12 87 1018 10 O 18.5
Oggi h: 08:00 coperto_pioggia Pioggia Debole 14 12 87 1017 10 O 14.8
Oggi h: 07:30 molto_nuvoloso Molto Nuvoloso 14 12 87 1017 10 NO 20.3
Oggi h: 07:00 molto_nuvoloso Molto Nuvoloso 14 12 87 1016 10 NO 20.3
Oggi h: 06:30 molto_nuvoloso Molto Nuvoloso 14 12 87 1016 10 NO 24
Oggi h: 06:00 coperto_pioggia Pioggia Debole 14 12 87 1016 10 NO 33.3
Oggi h: 05:30 coperto_pioggia Pioggia Debole 15 12 82 1015 10 NO 35.2
Oggi h: 05:00 coperto_pioggia Pioggia Debole 16 11 72 1015 10 NO 37
Oggi h: 04:30 coperto_pioggia Pioggia Debole 16 12 77 1014 10 NO 29.6
Oggi h: 04:00 sereno Sereno 18 11 63 1014 10 NO 33.3
Oggi h: 03:30 sereno Sereno 19 9 52 1013 10 N/NO 37
Oggi h: 03:00 sereno Sereno 20 9 49 1012 10 N/NO 38.8
Oggi h: 02:30 sereno Sereno 20 10 52 1011 10 N/NO 38.8
Oggi h: 02:00 sereno Sereno 22 9 43 1011 10 N/NO 46.3
Oggi h: 01:30 sereno Sereno 23 9 40 1011 10 N/NO 40.7
Oggi h: 01:00 sereno Sereno 24 12 47 1009 10 N 27.8
Oggi h: 00:30 sereno Sereno 24 12 47 1009 10 N 38.8
Oggi h: 00:00 sereno Sereno 24 16 60 1008 10 N 24
Ieri h: 23:30 sereno Sereno 21 17 77 1008 10 N 3.7
Ieri h: 23:00 sereno Sereno 21 17 77 1007 10 N 0
Ieri h: 22:30 sereno Sereno 22 17 73 1007 10 N 0
Ieri h: 22:00 sereno Sereno 21 18 82 1007 10 N 0
Ieri h: 21:30 sereno Sereno 23 16 64 1007 10 N 3.7
Ieri h: 21:00 sereno Sereno 24 17 64 1007 10 N 5.5
Ieri h: 20:30 sereno Sereno 25 18 65 1007 10 S 7.4
Ieri h: 20:00 sereno Sereno 27 17 54 1007 10 S/SE 7.4
Ieri h: 19:30 sereno Sereno 28 17 51 1007 10 N 5.5
Ieri h: 19:00 sereno Sereno 29 15 42 1007 10 SE 7.4
Ieri h: 18:30 sereno Sereno 30 13 35 1007 10 SE 9.3
Ieri h: 18:00 sereno Sereno 30 13 35 1007 10 E/SE 9.3
Ieri h: 17:30 sereno Sereno 30 13 35 1007 10 SE 7.4
Ieri h: 17:00 sereno Sereno 30 13 35 1007 10 E/NE 11.1
Ieri h: 16:30 sereno Sereno 31 12 31 1008 10 N 0
Ieri h: 16:00 sereno Sereno 30 13 35 1008 10 E/NE 16.7